createdAt,value
2023-12-07T00:00:05.359Z,100964.38
2023-12-07T00:02:32.742Z,100987.56
2023-12-07T00:04:59.638Z,100986.72
2023-12-07T00:07:26.351Z,100987.41
2023-12-07T00:09:53.336Z,100985.38
2023-12-07T00:12:20.271Z,100993.03
2023-12-07T00:14:47.329Z,100990.63
2023-12-07T00:17:14.843Z,100983.72
2023-12-07T00:19:41.821Z,100981.72
2023-12-07T00:22:08.567Z,100989.31
2023-12-07T00:24:35.497Z,100959.63
2023-12-07T00:27:02.244Z,100988.78
2023-12-07T00:29:29.169Z,100992.34
2023-12-07T00:31:55.834Z,100979.78
2023-12-07T00:34:22.870Z,100987.06
2023-12-07T00:36:50.022Z,100991.44
2023-12-07T00:39:18.060Z,100991.59
2023-12-07T00:41:44.772Z,100988.72
2023-12-07T00:44:11.691Z,100997.38
2023-12-07T00:46:38.388Z,100997.91
2023-12-07T00:49:05.365Z,100974.00
2023-12-07T00:51:32.213Z,100996.59
2023-12-07T00:53:59.593Z,100985.56
2023-12-07T00:56:26.400Z,101002.34
2023-12-07T00:58:53.491Z,101005.06
2023-12-07T01:01:20.230Z,101006.91
2023-12-07T01:03:47.285Z,100975.22
2023-12-07T01:06:14.122Z,101002.84
2023-12-07T01:08:41.520Z,101013.31
2023-12-07T01:11:08.208Z,101025.28
2023-12-07T01:13:37.138Z,101016.50
2023-12-07T01:16:04.155Z,101033.41
2023-12-07T01:18:31.172Z,101034.09
2023-12-07T01:20:57.941Z,101033.41
2023-12-07T01:23:25.176Z,101036.94
2023-12-07T01:25:51.961Z,101043.22
2023-12-07T01:28:19.346Z,101042.75
2023-12-07T01:30:46.075Z,101045.28
2023-12-07T01:33:13.256Z,101045.63
2023-12-07T01:35:39.912Z,101046.75
2023-12-07T01:38:06.851Z,101054.72
2023-12-07T01:40:33.582Z,101062.50
2023-12-07T01:43:01.236Z,101052.31
2023-12-07T01:45:27.892Z,101065.69
2023-12-07T01:47:55.454Z,101061.47
2023-12-07T01:50:25.993Z,101065.84
2023-12-07T01:52:58.684Z,101072.56
2023-12-07T01:55:25.906Z,101077.97
2023-12-07T01:57:52.998Z,101080.00
2023-12-07T02:00:20.293Z,101071.06
2023-12-07T02:02:48.030Z,101073.59
2023-12-07T02:05:15.325Z,101070.25
2023-12-07T02:07:42.654Z,101067.88
2023-12-07T02:10:09.797Z,101065.94
2023-12-07T02:12:37.266Z,101073.75
2023-12-07T02:15:04.569Z,101061.19
2023-12-07T02:17:37.627Z,101080.31
2023-12-07T02:20:29.768Z,101080.69
2023-12-07T02:22:58.281Z,101072.72
2023-12-07T02:25:30.145Z,101070.03
2023-12-07T02:27:57.193Z,101061.91
2023-12-07T02:30:23.967Z,101065.31
2023-12-07T02:32:50.997Z,101072.44
2023-12-07T02:35:17.832Z,101079.34
2023-12-07T02:37:46.505Z,101084.13
2023-12-07T02:40:16.060Z,101080.75
2023-12-07T02:42:44.110Z,101081.06
2023-12-07T02:45:11.728Z,101087.16
2023-12-07T02:47:38.883Z,101061.09
2023-12-07T02:50:09.247Z,101091.66
2023-12-07T02:52:36.392Z,101097.91
2023-12-07T02:55:04.195Z,101093.50
2023-12-07T02:57:31.529Z,101070.84
2023-12-07T02:59:58.320Z,101087.72
2023-12-07T03:02:25.839Z,101102.00
2023-12-07T03:04:52.794Z,101100.31
2023-12-07T03:07:19.814Z,101109.78
2023-12-07T03:09:46.493Z,101106.88
2023-12-07T03:12:13.463Z,101113.81
2023-12-07T03:14:40.149Z,101095.56
2023-12-07T03:17:07.095Z,101105.00
2023-12-07T03:19:33.783Z,101112.59
2023-12-07T03:22:00.727Z,101115.81
2023-12-07T03:24:27.412Z,101109.72
2023-12-07T03:26:54.373Z,101117.16
2023-12-07T03:29:21.063Z,101119.38
2023-12-07T03:31:48.017Z,101117.00
2023-12-07T03:34:16.814Z,101119.88
2023-12-07T03:36:49.218Z,101121.22
2023-12-07T03:39:16.501Z,101130.91
2023-12-07T03:41:43.482Z,101127.97
2023-12-07T03:44:10.408Z,101127.28
2023-12-07T03:46:37.482Z,101127.38
2023-12-07T03:49:04.376Z,101134.06
2023-12-07T03:51:31.362Z,101142.88
2023-12-07T03:53:58.078Z,101128.00
2023-12-07T03:56:29.523Z,101139.84
2023-12-07T03:58:56.899Z,101120.66
2023-12-07T04:01:25.072Z,101137.94
2023-12-07T04:03:55.875Z,101131.53
2023-12-07T04:06:23.510Z,101104.19
2023-12-07T04:08:50.718Z,101120.03
2023-12-07T04:11:18.102Z,101128.22
2023-12-07T04:13:45.204Z,101133.22
2023-12-07T04:16:12.290Z,101134.91
2023-12-07T04:18:39.187Z,101131.91
2023-12-07T04:21:06.793Z,101126.13
2023-12-07T04:23:34.218Z,101134.41
2023-12-07T04:26:01.219Z,101139.66
2023-12-07T04:28:27.985Z,101143.16
2023-12-07T04:30:55.372Z,101143.78
2023-12-07T04:33:22.215Z,101154.84
2023-12-07T04:35:49.780Z,101139.31
2023-12-07T04:38:16.513Z,101166.88
2023-12-07T04:40:43.636Z,101160.19
2023-12-07T04:43:10.507Z,101163.72
2023-12-07T04:45:37.561Z,101157.91
2023-12-07T04:48:05.875Z,101166.25
2023-12-07T04:50:33.086Z,101177.63
2023-12-07T04:53:00.171Z,101177.06
2023-12-07T04:55:27.541Z,101173.69
2023-12-07T04:57:54.550Z,101182.66
2023-12-07T05:00:22.530Z,101165.34
2023-12-07T05:02:49.638Z,101181.78
2023-12-07T05:05:16.661Z,101186.19
2023-12-07T05:07:43.447Z,101180.47
2023-12-07T05:10:11.010Z,101180.84
2023-12-07T05:12:38.041Z,101186.59
2023-12-07T05:15:06.844Z,101178.16
2023-12-07T05:17:34.314Z,101165.59
2023-12-07T05:20:01.479Z,101157.78
2023-12-07T05:22:29.168Z,101188.50
2023-12-07T05:24:56.731Z,101181.41
2023-12-07T05:27:23.494Z,101188.97
2023-12-07T05:29:53.563Z,101184.88
2023-12-07T05:32:20.331Z,101182.88
2023-12-07T05:34:47.466Z,101189.28
2023-12-07T05:37:14.220Z,101199.47
2023-12-07T05:39:41.632Z,101191.13
2023-12-07T05:42:08.419Z,101189.72
2023-12-07T05:44:35.437Z,101180.09
2023-12-07T05:47:02.267Z,101188.91
2023-12-07T05:49:29.392Z,101189.91
2023-12-07T05:51:56.092Z,101188.06
2023-12-07T05:54:26.038Z,101188.59
2023-12-07T05:56:52.707Z,101182.19
2023-12-07T05:59:19.715Z,101186.19
2023-12-07T06:01:46.613Z,101185.41
2023-12-07T06:04:14.324Z,101183.19
2023-12-07T06:06:41.799Z,101193.38
2023-12-07T06:09:09.432Z,101203.03
2023-12-07T06:11:36.518Z,101209.28
2023-12-07T06:14:04.348Z,101205.28
2023-12-07T06:16:31.304Z,101208.06
2023-12-07T06:18:58.441Z,101209.91
2023-12-07T06:21:26.623Z,101207.81
2023-12-07T06:23:54.113Z,101211.91
2023-12-07T06:26:20.980Z,101213.66
2023-12-07T06:28:48.000Z,101214.38
2023-12-07T06:31:16.858Z,101218.88
2023-12-07T06:33:44.374Z,101222.56
2023-12-07T06:36:11.471Z,101232.22
2023-12-07T06:38:39.733Z,101238.03
2023-12-07T06:41:06.596Z,101242.59
2023-12-07T06:43:33.666Z,101241.72
2023-12-07T06:46:00.440Z,101241.88
2023-12-07T06:48:27.866Z,101255.25
2023-12-07T06:50:54.610Z,101244.44
2023-12-07T06:53:21.607Z,101255.78
2023-12-07T06:55:48.445Z,101260.91
2023-12-07T06:58:15.835Z,101247.38
2023-12-07T07:00:42.571Z,101246.53
2023-12-07T07:03:09.697Z,101252.09
2023-12-07T07:05:36.516Z,101254.63
2023-12-07T07:08:03.695Z,101247.44
2023-12-07T07:10:30.536Z,101251.94
2023-12-07T07:13:06.856Z,101245.69
2023-12-07T07:15:33.924Z,101258.09
2023-12-07T07:18:00.977Z,101242.78
2023-12-07T07:20:27.956Z,101261.66
2023-12-07T07:22:54.980Z,101258.09
2023-12-07T07:25:21.747Z,101260.19
2023-12-07T07:27:48.807Z,101261.91
2023-12-07T07:30:15.738Z,101265.97
2023-12-07T07:32:42.979Z,101264.38
2023-12-07T07:35:10.121Z,101264.66
2023-12-07T07:37:37.221Z,101260.28
2023-12-07T07:40:07.869Z,101264.50
2023-12-07T07:42:38.445Z,101268.41
2023-12-07T07:45:09.480Z,101265.38
2023-12-07T07:47:39.378Z,101262.50
2023-12-07T07:50:07.108Z,101262.03
2023-12-07T07:52:35.063Z,101267.31
2023-12-07T07:55:04.005Z,101267.31
2023-12-07T07:57:31.716Z,101271.56
2023-12-07T07:59:59.154Z,101247.66
2023-12-07T08:02:26.273Z,101267.38
2023-12-07T08:04:53.071Z,101263.22
2023-12-07T08:07:20.549Z,101266.59
2023-12-07T08:09:47.342Z,101257.94
2023-12-07T08:12:14.466Z,101265.53
2023-12-07T08:14:43.643Z,101265.97
2023-12-07T08:17:11.449Z,101272.78
2023-12-07T08:19:39.122Z,101281.44
2023-12-07T08:22:06.319Z,101285.69
2023-12-07T08:24:33.039Z,101289.63
2023-12-07T08:27:00.246Z,101285.53
2023-12-07T08:29:26.991Z,101294.66
2023-12-07T08:31:54.144Z,101301.22
2023-12-07T08:34:24.029Z,101295.97
2023-12-07T08:36:51.404Z,101309.03
2023-12-07T08:39:18.170Z,101297.66
2023-12-07T08:41:45.218Z,101298.88
2023-12-07T08:44:12.515Z,101294.81
2023-12-07T08:46:39.785Z,101289.25
2023-12-07T08:49:07.501Z,101302.53
2023-12-07T08:51:35.460Z,101297.19
2023-12-07T08:54:02.150Z,101302.53
2023-12-07T08:56:32.177Z,101306.47
2023-12-07T08:58:58.862Z,101311.53
2023-12-07T09:01:32.678Z,101306.13
2023-12-07T09:04:00.838Z,101305.69
2023-12-07T09:06:28.144Z,101311.47
2023-12-07T09:08:56.294Z,101311.69
2023-12-07T09:11:23.469Z,101304.47
2023-12-07T09:13:50.653Z,101308.72
2023-12-07T09:16:17.770Z,101310.16
2023-12-07T09:18:46.254Z,101309.00
2023-12-07T09:21:14.081Z,101317.16
2023-12-07T09:23:40.825Z,101317.78
2023-12-07T09:26:08.950Z,101318.72
2023-12-07T09:28:35.938Z,101322.13
2023-12-07T09:31:03.161Z,101321.94
2023-12-07T09:33:30.061Z,101316.69
2023-12-07T09:35:57.229Z,101306.59
2023-12-07T09:38:23.956Z,101313.59
2023-12-07T09:40:54.451Z,101310.84
2023-12-07T09:43:21.361Z,101310.50
2023-12-07T09:45:48.972Z,101317.28
2023-12-07T09:48:17.708Z,101318.44
2023-12-07T09:50:44.728Z,101320.91
2023-12-07T09:53:11.619Z,101327.31
2023-12-07T09:55:39.353Z,101334.66
2023-12-07T09:58:08.597Z,101324.81
2023-12-07T10:00:37.991Z,101337.72
2023-12-07T10:03:09.251Z,101330.88
2023-12-07T10:05:59.105Z,101320.19
2023-12-07T10:08:33.705Z,101291.16
2023-12-07T10:11:08.828Z,101335.28
2023-12-07T10:13:36.692Z,101332.59
2023-12-07T10:16:16.324Z,101328.81
2023-12-07T10:18:44.896Z,101327.59
2023-12-07T10:21:14.107Z,101307.53
2023-12-07T10:23:44.557Z,101321.44
2023-12-07T10:26:11.934Z,101308.63
2023-12-07T10:28:40.780Z,101313.28
2023-12-07T10:31:11.522Z,101316.53
2023-12-07T10:33:38.562Z,101321.13
2023-12-07T10:36:06.503Z,101321.13
2023-12-07T10:38:33.967Z,101322.16
2023-12-07T10:41:07.615Z,101307.00
2023-12-07T10:43:39.897Z,101320.13
2023-12-07T10:46:07.211Z,101321.91
2023-12-07T10:48:34.687Z,101304.38
2023-12-07T10:51:04.184Z,101324.28
2023-12-07T10:53:41.525Z,101302.09
2023-12-07T10:56:12.503Z,101332.34
2023-12-07T10:58:40.201Z,101326.97
2023-12-07T11:01:10.029Z,101313.34
2023-12-07T11:03:38.166Z,101317.94
2023-12-07T11:06:07.140Z,101315.97
2023-12-07T11:08:52.272Z,101320.09
2023-12-07T11:11:45.650Z,101310.31
2023-12-07T11:14:12.991Z,101308.09
2023-12-07T11:16:44.727Z,101302.19
2023-12-07T11:19:34.676Z,101307.88
2023-12-07T11:22:07.436Z,101290.72
2023-12-07T11:24:34.266Z,101302.88
2023-12-07T11:27:02.392Z,101306.16
2023-12-07T11:29:30.236Z,101286.56
2023-12-07T11:31:58.455Z,101293.41
2023-12-07T11:34:44.469Z,101304.13
2023-12-07T11:37:19.913Z,101294.66
2023-12-07T11:39:46.899Z,101281.75
2023-12-07T11:42:18.952Z,101283.16
2023-12-07T11:44:50.140Z,101281.47
2023-12-07T11:47:18.665Z,101276.53
2023-12-07T11:49:45.978Z,101290.84
2023-12-07T11:52:22.459Z,101296.19
2023-12-07T11:54:50.931Z,101288.31
2023-12-07T11:57:18.832Z,101273.34
2023-12-07T11:59:46.161Z,101300.66
2023-12-07T12:02:13.742Z,101300.44
2023-12-07T12:04:44.577Z,101303.09
2023-12-07T12:07:11.949Z,101301.97
2023-12-07T12:09:38.771Z,101295.53
2023-12-07T12:12:06.229Z,101283.84
2023-12-07T12:14:33.124Z,101294.06
2023-12-07T12:17:00.247Z,101289.19
2023-12-07T12:19:32.732Z,101283.44
2023-12-07T12:22:07.122Z,101286.91
2023-12-07T12:24:36.717Z,101289.69
2023-12-07T12:27:04.625Z,101288.56
2023-12-07T12:29:34.447Z,101288.41
2023-12-07T12:32:03.840Z,101285.34
2023-12-07T12:34:31.078Z,101293.47
2023-12-07T12:36:58.454Z,101294.47
2023-12-07T12:39:33.228Z,101300.44
2023-12-07T12:42:02.509Z,101284.66
2023-12-07T12:44:36.573Z,101302.50
2023-12-07T12:47:13.017Z,101300.97
2023-12-07T12:49:41.548Z,101289.41
2023-12-07T12:52:13.410Z,101300.75
2023-12-07T12:54:44.350Z,101297.56
2023-12-07T12:57:11.577Z,101282.75
2023-12-07T12:59:38.452Z,101299.59
2023-12-07T13:02:05.853Z,101287.91
2023-12-07T13:04:40.924Z,101286.34
2023-12-07T13:07:09.956Z,101287.25
2023-12-07T13:09:36.765Z,101275.22
2023-12-07T13:12:05.833Z,101284.25
2023-12-07T13:14:37.032Z,101279.34
2023-12-07T13:17:05.724Z,101284.66
2023-12-07T13:19:33.109Z,101297.53
2023-12-07T13:22:04.510Z,101270.00
2023-12-07T13:24:31.315Z,101265.66
2023-12-07T13:27:01.470Z,101286.56
2023-12-07T13:29:35.351Z,101278.38
2023-12-07T13:32:05.372Z,101298.56
2023-12-07T13:34:32.395Z,101288.06
2023-12-07T13:36:59.994Z,101290.41
2023-12-07T13:39:30.664Z,101281.19
2023-12-07T13:42:01.364Z,101277.78
2023-12-07T13:44:29.738Z,101296.66
2023-12-07T13:46:58.254Z,101299.31
2023-12-07T13:49:32.323Z,101295.22
2023-12-07T13:52:06.281Z,101302.31
2023-12-07T13:54:47.022Z,101295.22
2023-12-07T13:57:21.783Z,101301.69
2023-12-07T13:59:48.809Z,101305.69
2023-12-07T14:02:16.518Z,101304.94
2023-12-07T14:04:43.786Z,101305.47
2023-12-07T14:07:12.842Z,101308.22
2023-12-07T14:09:53.496Z,101298.91
2023-12-07T14:12:25.455Z,101283.00
2023-12-07T14:14:52.581Z,101306.66
2023-12-07T14:17:20.838Z,101299.38
2023-12-07T14:19:49.786Z,101273.59
2023-12-07T14:22:17.311Z,101304.66
2023-12-07T14:24:44.272Z,101309.88
2023-12-07T14:27:11.503Z,101306.31
2023-12-07T14:29:38.289Z,101308.56
2023-12-07T14:32:05.491Z,101310.63
2023-12-07T14:34:35.293Z,101293.97
2023-12-07T14:37:07.388Z,101307.53
2023-12-07T14:39:38.282Z,101306.06
2023-12-07T14:42:06.143Z,101291.41
2023-12-07T14:44:33.583Z,101306.88
2023-12-07T14:47:00.671Z,101295.34
2023-12-07T14:49:29.324Z,101304.25
2023-12-07T14:52:00.532Z,101316.41
2023-12-07T14:54:30.137Z,101313.50
2023-12-07T14:56:58.283Z,101312.31
2023-12-07T14:59:25.403Z,101319.44
2023-12-07T15:01:53.212Z,101323.16
2023-12-07T15:04:28.287Z,101312.84
2023-12-07T15:07:01.683Z,101323.34
2023-12-07T15:09:29.557Z,101325.84
2023-12-07T15:11:57.345Z,101315.22
2023-12-07T15:14:33.924Z,101320.50
2023-12-07T15:17:06.185Z,101314.00
2023-12-07T15:19:34.203Z,101317.28
2023-12-07T15:22:01.652Z,101316.78
2023-12-07T15:24:34.772Z,101316.63
2023-12-07T15:27:06.729Z,101305.56
2023-12-07T15:29:38.889Z,101308.97
2023-12-07T15:32:06.785Z,101311.34
2023-12-07T15:34:38.881Z,101306.78
2023-12-07T15:37:11.846Z,101300.38
2023-12-07T15:39:43.785Z,101308.16
2023-12-07T15:42:12.085Z,101295.41
2023-12-07T15:44:39.142Z,101292.59
2023-12-07T15:47:07.155Z,101305.66
2023-12-07T15:49:34.232Z,101299.91
2023-12-07T15:52:01.796Z,101306.19
2023-12-07T15:56:59.066Z,101296.66
2023-12-07T15:59:26.121Z,101289.53
2023-12-07T16:01:53.201Z,101294.31
2023-12-07T16:04:29.195Z,101283.81
2023-12-07T16:07:03.021Z,101287.69
2023-12-07T16:09:29.702Z,101295.47
2023-12-07T16:11:57.166Z,101294.25
2023-12-07T16:14:29.624Z,101286.31
2023-12-07T16:17:00.977Z,101287.81
2023-12-07T16:19:28.839Z,101272.56
2023-12-07T16:21:57.033Z,101295.88
2023-12-07T16:24:23.931Z,101291.44
2023-12-07T16:26:53.077Z,101301.94
2023-12-07T16:29:20.152Z,101292.94
2023-12-07T16:31:47.464Z,101292.78
2023-12-07T16:34:14.660Z,101290.25
2023-12-07T16:36:41.825Z,101293.31
2023-12-07T16:39:09.203Z,101294.16
2023-12-07T16:41:41.658Z,101296.56
2023-12-07T16:44:15.351Z,101291.13
2023-12-07T16:46:45.986Z,101289.06
2023-12-07T16:49:15.865Z,101289.75
2023-12-07T16:51:42.957Z,101304.34
2023-12-07T16:54:09.945Z,101284.63
2023-12-07T16:56:37.257Z,101309.41
2023-12-07T16:59:04.151Z,101310.91
2023-12-07T17:01:31.282Z,101307.72
2023-12-07T17:03:58.256Z,101306.56
2023-12-07T17:06:25.929Z,101301.63
2023-12-07T17:09:06.966Z,101296.88
2023-12-07T17:11:39.412Z,101307.41
2023-12-07T17:14:06.378Z,101303.28
2023-12-07T17:16:33.958Z,101287.31
2023-12-07T17:19:01.187Z,101304.66
2023-12-07T17:21:29.918Z,101301.25
2023-12-07T17:23:59.343Z,101307.72
2023-12-07T17:26:30.412Z,101309.25
2023-12-07T17:29:00.554Z,101300.59
2023-12-07T17:31:27.681Z,101307.34
2023-12-07T17:33:57.015Z,101320.59
2023-12-07T17:36:24.772Z,101330.94
2023-12-07T17:38:52.541Z,101326.84
2023-12-07T17:41:19.845Z,101335.81
2023-12-07T17:43:46.918Z,101340.56
2023-12-07T17:46:13.984Z,101339.88
2023-12-07T17:48:40.854Z,101332.09
2023-12-07T17:51:09.622Z,101348.88
2023-12-07T17:53:36.578Z,101346.16
2023-12-07T17:56:04.493Z,101342.28
2023-12-07T17:58:31.412Z,101333.41
2023-12-07T18:00:58.448Z,101327.03
2023-12-07T18:03:26.047Z,101324.63
2023-12-07T18:05:53.281Z,101325.97
2023-12-07T18:08:20.036Z,101312.41
2023-12-07T18:10:46.979Z,101306.25
2023-12-07T18:13:13.941Z,101301.00
2023-12-07T18:15:41.021Z,101311.34
2023-12-07T18:18:08.030Z,101309.44
2023-12-07T18:20:35.103Z,101304.38
2023-12-07T18:23:01.806Z,101307.44
2023-12-07T18:25:28.935Z,101315.03
2023-12-07T18:27:55.613Z,101324.69
2023-12-07T18:30:22.397Z,101317.41
2023-12-07T18:32:49.415Z,101301.28
2023-12-07T18:35:16.234Z,101312.50
2023-12-07T18:37:43.210Z,101317.22
2023-12-07T18:40:10.130Z,101323.84
2023-12-07T18:42:37.148Z,101307.44
2023-12-07T18:45:04.154Z,101304.56
2023-12-07T18:47:31.194Z,101306.59
2023-12-07T18:49:57.892Z,101292.84
2023-12-07T18:52:26.698Z,101316.13
2023-12-07T18:54:53.388Z,101304.25
2023-12-07T18:57:20.373Z,101290.38
2023-12-07T18:59:47.127Z,101289.53
2023-12-07T19:02:14.488Z,101298.50
2023-12-07T19:04:44.554Z,101259.09
2023-12-07T19:07:11.606Z,101297.13
2023-12-07T19:09:38.219Z,101296.25
2023-12-07T19:12:05.589Z,101294.75
2023-12-07T19:14:34.631Z,101286.78
2023-12-07T19:17:01.683Z,101281.19
2023-12-07T19:19:28.682Z,101275.41
2023-12-07T19:21:55.773Z,101285.41
2023-12-07T19:24:22.583Z,101289.28
2023-12-07T19:26:49.977Z,101281.00
2023-12-07T19:29:17.844Z,101284.75
2023-12-07T19:31:45.579Z,101281.69
2023-12-07T19:34:13.127Z,101274.31
2023-12-07T19:36:41.480Z,101277.22
2023-12-07T19:39:13.006Z,101263.09
2023-12-07T19:41:41.736Z,101262.63
2023-12-07T19:44:10.264Z,101240.56
2023-12-07T19:46:37.285Z,101238.00
2023-12-07T19:49:04.202Z,101264.47
2023-12-07T19:51:31.276Z,101255.00
2023-12-07T19:53:59.640Z,101249.34
2023-12-07T19:56:26.699Z,101244.91
2023-12-07T19:58:53.416Z,101247.84
2023-12-07T20:01:20.398Z,101248.69
2023-12-07T20:03:47.241Z,101253.47
2023-12-07T20:06:15.019Z,101237.16
2023-12-07T20:08:44.238Z,101238.66
2023-12-07T20:11:17.234Z,101237.88
2023-12-07T20:13:43.986Z,101223.19
2023-12-07T20:16:19.801Z,101222.44
2023-12-07T20:18:46.772Z,101216.34
2023-12-07T20:21:14.230Z,101208.22
2023-12-07T20:23:43.359Z,101206.63
2023-12-07T20:26:16.137Z,101212.44
2023-12-07T20:28:45.018Z,101201.41
2023-12-07T20:31:12.069Z,101209.38
2023-12-07T20:33:39.051Z,101214.91
2023-12-07T20:36:06.851Z,101216.44
2023-12-07T20:38:33.655Z,101217.06
2023-12-07T20:41:00.762Z,101215.22
2023-12-07T20:43:27.610Z,101222.56
2023-12-07T20:45:54.542Z,101224.25
2023-12-07T20:48:21.398Z,101220.84
2023-12-07T20:50:49.207Z,101221.72
2023-12-07T20:53:17.455Z,101209.38
2023-12-07T20:55:44.800Z,101210.44
2023-12-07T20:58:11.971Z,101200.94
2023-12-07T21:00:39.086Z,101210.81
2023-12-07T21:03:07.704Z,101203.56
2023-12-07T21:05:34.990Z,101186.19
2023-12-07T21:08:01.924Z,101206.22
2023-12-07T21:10:28.949Z,101206.81
2023-12-07T21:12:58.312Z,101200.84
2023-12-07T21:15:25.847Z,101188.09
2023-12-07T21:17:53.283Z,101195.59
2023-12-07T21:20:21.363Z,101199.16
2023-12-07T21:22:48.738Z,101187.19
2023-12-07T21:25:16.073Z,101191.75
2023-12-07T21:27:43.757Z,101190.66
2023-12-07T21:30:11.220Z,101179.63
2023-12-07T21:32:38.103Z,101205.75
2023-12-07T21:35:08.358Z,101199.78
2023-12-07T21:37:35.248Z,101191.22
2023-12-07T21:40:04.060Z,101185.59
2023-12-07T21:42:30.980Z,101172.59
2023-12-07T21:44:57.996Z,101191.59
2023-12-07T21:47:24.942Z,101177.53
2023-12-07T21:49:52.204Z,101158.56
2023-12-07T21:52:18.903Z,101185.59
2023-12-07T21:54:45.955Z,101185.13
2023-12-07T21:57:12.650Z,101182.78
2023-12-07T21:59:39.718Z,101190.19
2023-12-07T22:02:06.534Z,101193.91
2023-12-07T22:04:33.533Z,101175.53
2023-12-07T22:07:00.290Z,101192.00
2023-12-07T22:09:27.407Z,101195.53
2023-12-07T22:11:54.145Z,101181.47
2023-12-07T22:14:21.241Z,101172.69
2023-12-07T22:16:48.053Z,101167.59
2023-12-07T22:19:18.466Z,101176.69
2023-12-07T22:21:45.307Z,101174.69
2023-12-07T22:24:12.342Z,101176.91
2023-12-07T22:26:39.099Z,101164.72
2023-12-07T22:29:06.074Z,101171.13
2023-12-07T22:31:32.754Z,101166.94
2023-12-07T22:34:03.189Z,101173.97
2023-12-07T22:36:30.246Z,101177.72
2023-12-07T22:38:59.118Z,101142.88
2023-12-07T22:41:26.492Z,101172.78
2023-12-07T22:43:53.524Z,101165.72
2023-12-07T22:46:20.364Z,101169.84
2023-12-07T22:48:48.293Z,101166.44
2023-12-07T22:51:15.045Z,101152.97
2023-12-07T22:53:45.867Z,101164.19
2023-12-07T22:56:12.873Z,101161.31
2023-12-07T22:58:40.018Z,101168.16
2023-12-07T23:01:06.810Z,101169.84
2023-12-07T23:03:35.457Z,101167.81
2023-12-07T23:06:02.270Z,101168.81
2023-12-07T23:08:29.395Z,101159.19
2023-12-07T23:10:56.090Z,101167.53
2023-12-07T23:13:23.235Z,101163.13
2023-12-07T23:15:49.897Z,101148.50
2023-12-07T23:18:17.247Z,101131.44
2023-12-07T23:20:44.080Z,101140.47
2023-12-07T23:23:11.055Z,101137.91
2023-12-07T23:25:37.774Z,101133.97
2023-12-07T23:28:05.042Z,101128.03
2023-12-07T23:30:31.875Z,101111.91
2023-12-07T23:32:58.946Z,101127.88
2023-12-07T23:35:25.826Z,101121.63
2023-12-07T23:37:52.766Z,101123.63
2023-12-07T23:40:20.210Z,101118.38
2023-12-07T23:42:47.175Z,101108.41
2023-12-07T23:45:14.028Z,101070.47
2023-12-07T23:47:41.152Z,101082.75
2023-12-07T23:50:08.456Z,101087.91
2023-12-07T23:52:35.469Z,101088.44
2023-12-07T23:55:02.374Z,101084.59
2023-12-07T23:57:29.327Z,101089.69
2023-12-07T23:59:56.061Z,101073.31
